sensor_id;sensor_type;location;lat;lon;timestamp;pressure;altitude;pressure_sealevel;temperature;humidity
48964;BME280;34776;48.180;16.420;2023-02-25T00:00:20;98014.47;;;11.22;62.18
48964;BME280;34776;48.180;16.420;2023-02-25T00:02:47;98008.03;;;11.25;62.06
48964;BME280;34776;48.180;16.420;2023-02-25T00:05:17;98003.44;;;11.27;62.22
48964;BME280;34776;48.180;16.420;2023-02-25T00:07:43;98000.53;;;11.30;62.31
48964;BME280;34776;48.180;16.420;2023-02-25T00:10:10;98010.31;;;11.29;62.42
48964;BME280;34776;48.180;16.420;2023-02-25T00:12:36;98004.16;;;11.29;62.42
48964;BME280;34776;48.180;16.420;2023-02-25T00:15:03;97999.09;;;11.26;62.86
48964;BME280;34776;48.180;16.420;2023-02-25T00:17:28;98003.81;;;11.22;62.98
48964;BME280;34776;48.180;16.420;2023-02-25T00:19:54;97999.84;;;11.16;63.00
48964;BME280;34776;48.180;16.420;2023-02-25T00:22:21;98003.50;;;11.15;63.37
48964;BME280;34776;48.180;16.420;2023-02-25T00:24:46;97996.25;;;11.06;63.82
48964;BME280;34776;48.180;16.420;2023-02-25T00:27:11;98002.56;;;11.05;63.73
48964;BME280;34776;48.180;16.420;2023-02-25T00:29:37;97996.03;;;11.09;64.01
48964;BME280;34776;48.180;16.420;2023-02-25T00:32:02;97987.66;;;11.14;63.81
48964;BME280;34776;48.180;16.420;2023-02-25T00:34:27;97991.16;;;11.14;64.20
48964;BME280;34776;48.180;16.420;2023-02-25T00:36:53;98000.75;;;11.06;64.44
48964;BME280;34776;48.180;16.420;2023-02-25T00:39:18;97985.63;;;11.06;64.24
48964;BME280;34776;48.180;16.420;2023-02-25T00:41:44;97986.34;;;11.08;64.51
48964;BME280;34776;48.180;16.420;2023-02-25T00:44:09;97982.72;;;11.09;64.82
48964;BME280;34776;48.180;16.420;2023-02-25T00:46:34;97992.66;;;10.96;65.50
48964;BME280;34776;48.180;16.420;2023-02-25T00:49:00;97992.81;;;10.83;65.97
48964;BME280;34776;48.180;16.420;2023-02-25T00:51:28;97994.19;;;10.77;66.29
48964;BME280;34776;48.180;16.420;2023-02-25T00:53:54;97991.53;;;10.77;66.66
48964;BME280;34776;48.180;16.420;2023-02-25T00:56:21;97976.09;;;10.71;67.03
48964;BME280;34776;48.180;16.420;2023-02-25T00:58:48;97983.22;;;10.71;67.56
48964;BME280;34776;48.180;16.420;2023-02-25T01:01:32;97980.56;;;10.60;68.48
48964;BME280;34776;48.180;16.420;2023-02-25T01:03:58;97973.75;;;10.34;69.06
48964;BME280;34776;48.180;16.420;2023-02-25T01:06:24;97972.50;;;10.16;69.83
48964;BME280;34776;48.180;16.420;2023-02-25T01:08:50;97963.94;;;10.01;70.59
48964;BME280;34776;48.180;16.420;2023-02-25T01:11:22;97949.59;;;9.92;71.20
48964;BME280;34776;48.180;16.420;2023-02-25T01:13:55;97950.69;;;9.90;70.61
48964;BME280;34776;48.180;16.420;2023-02-25T01:16:22;97946.22;;;9.90;69.99
48964;BME280;34776;48.180;16.420;2023-02-25T01:18:56;97956.00;;;9.90;69.89
48964;BME280;34776;48.180;16.420;2023-02-25T01:21:24;97978.91;;;9.91;69.70
48964;BME280;34776;48.180;16.420;2023-02-25T01:23:54;97976.88;;;9.83;69.61
48964;BME280;34776;48.180;16.420;2023-02-25T01:26:23;97997.47;;;9.80;69.25
48964;BME280;34776;48.180;16.420;2023-02-25T01:28:49;98004.06;;;9.74;69.28
48964;BME280;34776;48.180;16.420;2023-02-25T01:31:19;98016.63;;;9.72;69.13
48964;BME280;34776;48.180;16.420;2023-02-25T01:33:49;98034.44;;;9.70;69.19
48964;BME280;34776;48.180;16.420;2023-02-25T01:36:14;98048.78;;;9.56;69.22
48964;BME280;34776;48.180;16.420;2023-02-25T01:38:40;98053.53;;;9.40;69.56
48964;BME280;34776;48.180;16.420;2023-02-25T01:41:05;98050.22;;;9.25;70.15
48964;BME280;34776;48.180;16.420;2023-02-25T01:43:30;98060.03;;;9.11;70.57
48964;BME280;34776;48.180;16.420;2023-02-25T01:45:56;98069.00;;;8.98;71.09
48964;BME280;34776;48.180;16.420;2023-02-25T01:48:23;98070.50;;;8.89;71.68
48964;BME280;34776;48.180;16.420;2023-02-25T01:50:53;98083.41;;;8.69;71.75
48964;BME280;34776;48.180;16.420;2023-02-25T01:53:27;98078.44;;;8.52;72.99
48964;BME280;34776;48.180;16.420;2023-02-25T01:55:56;98079.47;;;8.37;73.96
48964;BME280;34776;48.180;16.420;2023-02-25T01:58:22;98082.78;;;8.27;74.87
48964;BME280;34776;48.180;16.420;2023-02-25T02:00:48;98083.00;;;8.11;75.94
48964;BME280;34776;48.180;16.420;2023-02-25T02:03:13;98076.72;;;8.00;76.50
48964;BME280;34776;48.180;16.420;2023-02-25T02:08:23;98073.66;;;7.80;78.54
48964;BME280;34776;48.180;16.420;2023-02-25T02:10:50;98068.69;;;7.76;79.86
48964;BME280;34776;48.180;16.420;2023-02-25T02:13:16;98067.22;;;7.71;81.04
48964;BME280;34776;48.180;16.420;2023-02-25T02:15:50;98073.75;;;7.66;81.93
48964;BME280;34776;48.180;16.420;2023-02-25T02:18:19;98072.31;;;7.47;82.14
48964;BME280;34776;48.180;16.420;2023-02-25T02:26:29;98052.88;;;7.08;84.15
48964;BME280;34776;48.180;16.420;2023-02-25T02:34:50;98053.03;;;6.93;86.23
48964;BME280;34776;48.180;16.420;2023-02-25T02:37:28;98051.75;;;6.85;86.24
48964;BME280;34776;48.180;16.420;2023-02-25T02:45:53;98062.38;;;6.84;87.25
48964;BME280;34776;48.180;16.420;2023-02-25T02:48:41;98060.13;;;6.78;87.23
48964;BME280;34776;48.180;16.420;2023-02-25T02:51:18;98069.19;;;6.74;87.54
48964;BME280;34776;48.180;16.420;2023-02-25T02:53:52;98071.66;;;6.77;88.11
48964;BME280;34776;48.180;16.420;2023-02-25T02:56:20;98066.84;;;6.69;87.60
48964;BME280;34776;48.180;16.420;2023-02-25T02:59:01;98071.44;;;6.80;88.71
48964;BME280;34776;48.180;16.420;2023-02-25T03:01:34;98072.56;;;6.90;88.76
48964;BME280;34776;48.180;16.420;2023-02-25T03:04:07;98083.03;;;6.91;88.73
48964;BME280;34776;48.180;16.420;2023-02-25T03:06:38;98089.63;;;6.84;88.49
48964;BME280;34776;48.180;16.420;2023-02-25T03:09:09;98098.59;;;6.82;88.65
48964;BME280;34776;48.180;16.420;2023-02-25T03:11:36;98105.19;;;6.89;88.61
48964;BME280;34776;48.180;16.420;2023-02-25T03:14:01;98101.22;;;6.96;89.06
48964;BME280;34776;48.180;16.420;2023-02-25T03:16:37;98118.03;;;6.95;88.82
48964;BME280;34776;48.180;16.420;2023-02-25T03:19:17;98126.50;;;6.86;88.38
48964;BME280;34776;48.180;16.420;2023-02-25T03:21:52;98141.50;;;6.85;88.71
48964;BME280;34776;48.180;16.420;2023-02-25T03:24:25;98148.09;;;6.78;88.77
48964;BME280;34776;48.180;16.420;2023-02-25T03:26:54;98154.13;;;6.80;89.08
48964;BME280;34776;48.180;16.420;2023-02-25T03:29:21;98167.63;;;6.76;89.17
48964;BME280;34776;48.180;16.420;2023-02-25T03:32:03;98164.81;;;6.64;89.08
48964;BME280;34776;48.180;16.420;2023-02-25T03:34:38;98179.50;;;6.68;89.29
48964;BME280;34776;48.180;16.420;2023-02-25T03:37:11;98180.66;;;6.64;88.98
48964;BME280;34776;48.180;16.420;2023-02-25T03:39:40;98178.75;;;6.52;88.80
48964;BME280;34776;48.180;16.420;2023-02-25T03:42:11;98185.13;;;6.34;88.18
48964;BME280;34776;48.180;16.420;2023-02-25T03:44:42;98179.47;;;6.25;88.55
48964;BME280;34776;48.180;16.420;2023-02-25T03:47:10;98159.84;;;6.01;87.28
48964;BME280;34776;48.180;16.420;2023-02-25T03:49:43;98158.94;;;5.86;88.05
48964;BME280;34776;48.180;16.420;2023-02-25T03:52:16;98138.50;;;5.89;88.56
48964;BME280;34776;48.180;16.420;2023-02-25T03:54:49;98140.56;;;5.84;88.12
48964;BME280;34776;48.180;16.420;2023-02-25T03:57:15;98133.88;;;5.79;88.21
48964;BME280;34776;48.180;16.420;2023-02-25T03:59:41;98124.16;;;5.79;88.32
48964;BME280;34776;48.180;16.420;2023-02-25T04:02:06;98133.19;;;5.75;87.99
48964;BME280;34776;48.180;16.420;2023-02-25T04:04:32;98140.19;;;5.76;88.26
48964;BME280;34776;48.180;16.420;2023-02-25T04:06:57;98141.78;;;5.79;88.57
48964;BME280;34776;48.180;16.420;2023-02-25T04:09:22;98145.09;;;5.82;88.42
48964;BME280;34776;48.180;16.420;2023-02-25T04:11:48;98130.41;;;5.78;87.98
48964;BME280;34776;48.180;16.420;2023-02-25T04:14:13;98136.78;;;5.74;87.50
48964;BME280;34776;48.180;16.420;2023-02-25T04:16:39;98124.91;;;5.67;87.45
48964;BME280;34776;48.180;16.420;2023-02-25T04:19:05;98118.78;;;5.66;87.30
48964;BME280;34776;48.180;16.420;2023-02-25T04:21:35;98108.72;;;5.73;87.03
48964;BME280;34776;48.180;16.420;2023-02-25T04:24:02;98125.31;;;5.89;87.24
48964;BME280;34776;48.180;16.420;2023-02-25T04:26:29;98112.41;;;6.01;87.01
48964;BME280;34776;48.180;16.420;2023-02-25T04:28:55;98124.06;;;5.97;85.39
48964;BME280;34776;48.180;16.420;2023-02-25T04:31:20;98124.47;;;5.89;85.17
48964;BME280;34776;48.180;16.420;2023-02-25T04:33:46;98123.31;;;5.95;85.78
48964;BME280;34776;48.180;16.420;2023-02-25T04:36:22;98122.53;;;5.93;85.40
48964;BME280;34776;48.180;16.420;2023-02-25T04:38:48;98112.91;;;5.92;84.97
48964;BME280;34776;48.180;16.420;2023-02-25T04:41:13;98125.53;;;5.86;83.95
48964;BME280;34776;48.180;16.420;2023-02-25T04:43:38;98119.41;;;5.86;83.97
48964;BME280;34776;48.180;16.420;2023-02-25T04:46:03;98132.66;;;5.84;83.64
48964;BME280;34776;48.180;16.420;2023-02-25T04:48:30;98136.22;;;5.83;83.92
48964;BME280;34776;48.180;16.420;2023-02-25T04:51:00;98135.59;;;5.80;83.14
48964;BME280;34776;48.180;16.420;2023-02-25T04:53:25;98128.13;;;5.72;83.23
48964;BME280;34776;48.180;16.420;2023-02-25T04:55:50;98118.50;;;5.71;83.27
48964;BME280;34776;48.180;16.420;2023-02-25T04:58:15;98107.41;;;5.66;83.14
48964;BME280;34776;48.180;16.420;2023-02-25T05:00:41;98116.41;;;5.62;83.15
48964;BME280;34776;48.180;16.420;2023-02-25T05:03:11;98105.13;;;5.60;83.26
48964;BME280;34776;48.180;16.420;2023-02-25T05:05:37;98090.41;;;5.56;83.22
48964;BME280;34776;48.180;16.420;2023-02-25T05:08:02;98089.84;;;5.51;82.85
48964;BME280;34776;48.180;16.420;2023-02-25T05:10:28;98099.44;;;5.52;82.89
48964;BME280;34776;48.180;16.420;2023-02-25T05:12:54;98098.94;;;5.45;82.40
48964;BME280;34776;48.180;16.420;2023-02-25T05:15:19;98107.88;;;5.42;82.34
48964;BME280;34776;48.180;16.420;2023-02-25T05:17:45;98119.53;;;5.38;82.40
48964;BME280;34776;48.180;16.420;2023-02-25T05:20:10;98130.06;;;5.38;82.80
48964;BME280;34776;48.180;16.420;2023-02-25T05:22:37;98121.41;;;5.36;82.69
48964;BME280;34776;48.180;16.420;2023-02-25T05:25:03;98122.53;;;5.32;82.20
48964;BME280;34776;48.180;16.420;2023-02-25T05:27:28;98136.72;;;5.29;82.44
48964;BME280;34776;48.180;16.420;2023-02-25T05:29:54;98132.44;;;5.27;81.77
48964;BME280;34776;48.180;16.420;2023-02-25T05:32:20;98148.44;;;5.24;81.35
48964;BME280;34776;48.180;16.420;2023-02-25T05:34:46;98132.81;;;5.21;80.88
48964;BME280;34776;48.180;16.420;2023-02-25T05:37:11;98142.59;;;5.19;80.80
48964;BME280;34776;48.180;16.420;2023-02-25T05:39:37;98133.75;;;5.20;81.09
48964;BME280;34776;48.180;16.420;2023-02-25T05:42:02;98127.56;;;5.21;81.09
48964;BME280;34776;48.180;16.420;2023-02-25T05:44:27;98118.91;;;5.19;80.73
48964;BME280;34776;48.180;16.420;2023-02-25T05:46:53;98125.84;;;5.20;80.66
48964;BME280;34776;48.180;16.420;2023-02-25T05:49:18;98116.16;;;5.20;80.59
48964;BME280;34776;48.180;16.420;2023-02-25T05:51:43;98118.78;;;5.20;80.57
48964;BME280;34776;48.180;16.420;2023-02-25T05:54:09;98138.25;;;5.18;79.73
48964;BME280;34776;48.180;16.420;2023-02-25T05:56:34;98117.19;;;5.18;79.73
48964;BME280;34776;48.180;16.420;2023-02-25T05:58:59;98139.00;;;5.20;80.04
48964;BME280;34776;48.180;16.420;2023-02-25T06:01:26;98139.19;;;5.17;79.53
48964;BME280;34776;48.180;16.420;2023-02-25T06:03:56;98155.56;;;5.22;79.45
48964;BME280;34776;48.180;16.420;2023-02-25T06:06:23;98163.56;;;5.20;79.18
48964;BME280;34776;48.180;16.420;2023-02-25T06:08:49;98177.41;;;5.24;79.42
48964;BME280;34776;48.180;16.420;2023-02-25T06:11:24;98176.63;;;5.22;78.88
48964;BME280;34776;48.180;16.420;2023-02-25T06:13:51;98172.91;;;5.26;79.39
48964;BME280;34776;48.180;16.420;2023-02-25T06:16:17;98158.78;;;5.27;78.31
48964;BME280;34776;48.180;16.420;2023-02-25T06:18:43;98166.44;;;5.32;77.98
48964;BME280;34776;48.180;16.420;2023-02-25T06:21:10;98165.50;;;5.33;77.38
48964;BME280;34776;48.180;16.420;2023-02-25T06:23:38;98174.09;;;5.36;77.44
48964;BME280;34776;48.180;16.420;2023-02-25T06:26:05;98145.03;;;5.38;77.17
48964;BME280;34776;48.180;16.420;2023-02-25T06:28:32;98157.34;;;5.37;76.11
48964;BME280;34776;48.180;16.420;2023-02-25T06:30:59;98154.88;;;5.34;75.98
48964;BME280;34776;48.180;16.420;2023-02-25T06:33:24;98161.19;;;5.32;75.40
48964;BME280;34776;48.180;16.420;2023-02-25T06:35:53;98163.91;;;5.30;75.39
48964;BME280;34776;48.180;16.420;2023-02-25T06:38:19;98172.56;;;5.32;75.80
48964;BME280;34776;48.180;16.420;2023-02-25T06:40:45;98146.03;;;5.35;75.59
48964;BME280;34776;48.180;16.420;2023-02-25T06:43:11;98164.47;;;5.35;75.31
48964;BME280;34776;48.180;16.420;2023-02-25T06:45:37;98182.91;;;5.35;75.18
48964;BME280;34776;48.180;16.420;2023-02-25T06:48:02;98191.75;;;5.34;74.71
48964;BME280;34776;48.180;16.420;2023-02-25T06:50:27;98208.41;;;5.35;74.26
48964;BME280;34776;48.180;16.420;2023-02-25T06:52:53;98203.97;;;5.35;73.73
48964;BME280;34776;48.180;16.420;2023-02-25T06:55:18;98210.78;;;5.39;74.29
48964;BME280;34776;48.180;16.420;2023-02-25T06:57:44;98224.72;;;5.41;72.90
48964;BME280;34776;48.180;16.420;2023-02-25T07:00:10;98231.50;;;5.45;73.25
48964;BME280;34776;48.180;16.420;2023-02-25T07:02:35;98225.91;;;5.52;73.03
48964;BME280;34776;48.180;16.420;2023-02-25T07:05:01;98242.53;;;5.52;72.70
48964;BME280;34776;48.180;16.420;2023-02-25T07:07:27;98220.47;;;5.55;72.81
48964;BME280;34776;48.180;16.420;2023-02-25T07:09:52;98224.63;;;5.59;72.48
48964;BME280;34776;48.180;16.420;2023-02-25T07:12:18;98241.34;;;5.58;71.76
48964;BME280;34776;48.180;16.420;2023-02-25T07:23:44;98249.75;;;6.26;70.72
48964;BME280;34776;48.180;16.420;2023-02-25T07:26:11;98249.56;;;6.29;70.35
48964;BME280;34776;48.180;16.420;2023-02-25T07:28:38;98247.34;;;6.38;69.74
48964;BME280;34776;48.180;16.420;2023-02-25T07:31:12;98254.47;;;6.36;68.91
48964;BME280;34776;48.180;16.420;2023-02-25T07:33:38;98274.66;;;6.37;68.86
48964;BME280;34776;48.180;16.420;2023-02-25T07:36:05;98269.94;;;6.42;68.84
48964;BME280;34776;48.180;16.420;2023-02-25T07:38:30;98258.13;;;6.49;68.73
48964;BME280;34776;48.180;16.420;2023-02-25T07:40:56;98280.16;;;6.48;68.43
48964;BME280;34776;48.180;16.420;2023-02-25T07:43:21;98268.28;;;6.41;66.53
48964;BME280;34776;48.180;16.420;2023-02-25T07:45:48;98289.53;;;6.38;66.61
48964;BME280;34776;48.180;16.420;2023-02-25T07:48:14;98277.09;;;6.40;66.47
48964;BME280;34776;48.180;16.420;2023-02-25T07:50:39;98273.94;;;6.49;66.24
48964;BME280;34776;48.180;16.420;2023-02-25T07:53:04;98272.63;;;6.56;65.12
48964;BME280;34776;48.180;16.420;2023-02-25T07:55:30;98266.91;;;6.64;64.42
48964;BME280;34776;48.180;16.420;2023-02-25T07:57:56;98264.38;;;6.77;63.70
48964;BME280;34776;48.180;16.420;2023-02-25T08:00:21;98264.56;;;6.88;62.53
48964;BME280;34776;48.180;16.420;2023-02-25T08:02:47;98262.72;;;7.87;61.52
48964;BME280;34776;48.180;16.420;2023-02-25T08:05:12;98268.81;;;11.10;55.49
48964;BME280;34776;48.180;16.420;2023-02-25T08:07:37;98260.59;;;12.88;49.90
48964;BME280;34776;48.180;16.420;2023-02-25T08:10:03;98236.81;;;14.26;47.00
48964;BME280;34776;48.180;16.420;2023-02-25T08:12:29;98244.66;;;15.33;43.34
48964;BME280;34776;48.180;16.420;2023-02-25T08:14:54;98246.31;;;16.53;41.69
48964;BME280;34776;48.180;16.420;2023-02-25T08:17:21;98234.69;;;17.57;38.44
48964;BME280;34776;48.180;16.420;2023-02-25T08:19:47;98242.78;;;17.22;38.35
48964;BME280;34776;48.180;16.420;2023-02-25T08:22:12;98240.56;;;17.52;38.69
48964;BME280;34776;48.180;16.420;2023-02-25T08:24:38;98250.47;;;19.34;36.95
48964;BME280;34776;48.180;16.420;2023-02-25T08:27:03;98225.84;;;20.16;33.94
48964;BME280;34776;48.180;16.420;2023-02-25T08:29:31;98233.72;;;19.15;33.74
48964;BME280;34776;48.180;16.420;2023-02-25T08:31:56;98253.91;;;19.19;34.35
48964;BME280;34776;48.180;16.420;2023-02-25T08:34:23;98242.59;;;20.03;34.15
48964;BME280;34776;48.180;16.420;2023-02-25T08:36:48;98256.84;;;20.66;32.92
48964;BME280;34776;48.180;16.420;2023-02-25T08:39:13;98264.94;;;19.89;33.13
48964;BME280;34776;48.180;16.420;2023-02-25T08:41:39;98258.88;;;19.39;33.90
48964;BME280;34776;48.180;16.420;2023-02-25T08:44:04;98285.13;;;19.45;33.90
48964;BME280;34776;48.180;16.420;2023-02-25T08:46:31;98267.16;;;19.13;33.82
48964;BME280;34776;48.180;16.420;2023-02-25T08:48:57;98299.09;;;19.96;33.19
48964;BME280;34776;48.180;16.420;2023-02-25T08:51:24;98263.41;;;19.86;32.74
48964;BME280;34776;48.180;16.420;2023-02-25T08:53:59;98264.69;;;19.11;33.31
48964;BME280;34776;48.180;16.420;2023-02-25T08:56:25;98265.22;;;18.90;33.36
48964;BME280;34776;48.180;16.420;2023-02-25T08:58:51;98257.94;;;18.66;33.47
48964;BME280;34776;48.180;16.420;2023-02-25T09:01:16;98250.22;;;18.88;33.62
48964;BME280;34776;48.180;16.420;2023-02-25T09:03:44;98250.53;;;19.09;32.96
48964;BME280;34776;48.180;16.420;2023-02-25T09:06:15;98243.00;;;18.96;33.24
48964;BME280;34776;48.180;16.420;2023-02-25T09:08:41;98252.44;;;19.48;32.81
48964;BME280;34776;48.180;16.420;2023-02-25T09:11:06;98262.28;;;20.12;32.16
48964;BME280;34776;48.180;16.420;2023-02-25T09:13:31;98263.00;;;19.02;31.41
48964;BME280;34776;48.180;16.420;2023-02-25T09:15:57;98263.13;;;18.10;32.61
48964;BME280;34776;48.180;16.420;2023-02-25T09:18:23;98279.44;;;16.88;33.37
48964;BME280;34776;48.180;16.420;2023-02-25T09:20:49;98281.59;;;17.36;34.56
48964;BME280;34776;48.180;16.420;2023-02-25T09:23:14;98278.91;;;17.71;33.20
48964;BME280;34776;48.180;16.420;2023-02-25T09:25:40;98267.53;;;16.82;34.16
48964;BME280;34776;48.180;16.420;2023-02-25T09:28:09;98266.44;;;16.21;34.58
48964;BME280;34776;48.180;16.420;2023-02-25T09:30:34;98281.69;;;15.37;35.64
48964;BME280;34776;48.180;16.420;2023-02-25T09:33:00;98277.53;;;15.15;36.03
48964;BME280;34776;48.180;16.420;2023-02-25T09:35:25;98283.00;;;15.23;36.06
48964;BME280;34776;48.180;16.420;2023-02-25T09:37:50;98281.53;;;14.53;36.88
48964;BME280;34776;48.180;16.420;2023-02-25T09:40:18;98280.44;;;14.65;36.99
48964;BME280;34776;48.180;16.420;2023-02-25T09:45:32;98279.03;;;14.61;36.63
48964;BME280;34776;48.180;16.420;2023-02-25T09:48:08;98284.78;;;13.57;36.07
48964;BME280;34776;48.180;16.420;2023-02-25T09:50:42;98292.19;;;12.71;39.47
48964;BME280;34776;48.180;16.420;2023-02-25T09:53:30;98286.34;;;12.24;39.38
48964;BME280;34776;48.180;16.420;2023-02-25T09:55:57;98280.41;;;11.54;40.47
48964;BME280;34776;48.180;16.420;2023-02-25T10:03:55;98288.22;;;10.30;41.87
48964;BME280;34776;48.180;16.420;2023-02-25T10:06:31;98289.38;;;10.02;42.61
48964;BME280;34776;48.180;16.420;2023-02-25T10:12:05;98291.44;;;9.62;43.81
48964;BME280;34776;48.180;16.420;2023-02-25T10:23:23;98292.16;;;10.01;43.42
48964;BME280;34776;48.180;16.420;2023-02-25T10:26:00;98313.91;;;10.06;42.90
48964;BME280;34776;48.180;16.420;2023-02-25T10:28:28;98294.50;;;9.92;43.45
48964;BME280;34776;48.180;16.420;2023-02-25T10:31:01;98302.56;;;10.04;43.08
48964;BME280;34776;48.180;16.420;2023-02-25T10:33:32;98298.91;;;10.05;42.73
48964;BME280;34776;48.180;16.420;2023-02-25T10:38:24;98288.84;;;10.34;42.11
48964;BME280;34776;48.180;16.420;2023-02-25T10:40:55;98284.91;;;10.51;41.31
48964;BME280;34776;48.180;16.420;2023-02-25T10:43:24;98291.41;;;9.99;41.18
48964;BME280;34776;48.180;16.420;2023-02-25T10:45:55;98306.00;;;9.80;42.48
48964;BME280;34776;48.180;16.420;2023-02-25T10:48:23;98280.47;;;9.79;42.38
48964;BME280;34776;48.180;16.420;2023-02-25T10:51:13;98322.44;;;9.48;42.22
48964;BME280;34776;48.180;16.420;2023-02-25T10:56:17;98283.63;;;9.47;42.88
48964;BME280;34776;48.180;16.420;2023-02-25T10:58:44;98280.38;;;9.68;43.13
48964;BME280;34776;48.180;16.420;2023-02-25T11:01:14;98286.59;;;9.55;43.29
48964;BME280;34776;48.180;16.420;2023-02-25T11:03:56;98264.50;;;9.55;43.33
48964;BME280;34776;48.180;16.420;2023-02-25T11:06:27;98259.16;;;9.68;43.39
48964;BME280;34776;48.180;16.420;2023-02-25T11:08:55;98266.22;;;9.56;43.11
48964;BME280;34776;48.180;16.420;2023-02-25T11:11:32;98255.75;;;9.66;42.79
48964;BME280;34776;48.180;16.420;2023-02-25T11:14:12;98252.94;;;9.80;42.88
48964;BME280;34776;48.180;16.420;2023-02-25T11:16:40;98271.59;;;10.15;42.49
48964;BME280;34776;48.180;16.420;2023-02-25T11:19:13;98270.50;;;10.18;41.71
48964;BME280;34776;48.180;16.420;2023-02-25T11:21:41;98275.91;;;10.29;42.16
48964;BME280;34776;48.180;16.420;2023-02-25T11:24:21;98278.44;;;10.31;40.94
48964;BME280;34776;48.180;16.420;2023-02-25T11:26:51;98253.59;;;10.32;41.95
48964;BME280;34776;48.180;16.420;2023-02-25T11:29:28;98268.69;;;10.31;41.67
48964;BME280;34776;48.180;16.420;2023-02-25T11:32:07;98261.25;;;10.24;41.39
48964;BME280;34776;48.180;16.420;2023-02-25T11:35:23;98252.94;;;10.28;41.68
48964;BME280;34776;48.180;16.420;2023-02-25T11:39:59;98264.75;;;10.24;42.23
48964;BME280;34776;48.180;16.420;2023-02-25T11:42:26;98267.97;;;10.41;41.89
48964;BME280;34776;48.180;16.420;2023-02-25T11:45:02;98256.78;;;10.24;41.64
48964;BME280;34776;48.180;16.420;2023-02-25T11:47:30;98245.28;;;10.36;41.50
48964;BME280;34776;48.180;16.420;2023-02-25T11:52:34;98274.88;;;10.19;41.30
48964;BME280;34776;48.180;16.420;2023-02-25T11:55:50;98266.06;;;10.43;40.97
48964;BME280;34776;48.180;16.420;2023-02-25T12:00:37;98268.25;;;10.49;40.96
48964;BME280;34776;48.180;16.420;2023-02-25T12:08:34;98288.31;;;11.11;40.09
48964;BME280;34776;48.180;16.420;2023-02-25T12:14:26;98301.69;;;11.09;38.86
48964;BME280;34776;48.180;16.420;2023-02-25T12:17:08;98292.28;;;11.16;39.90
48964;BME280;34776;48.180;16.420;2023-02-25T12:25:29;98291.75;;;10.77;40.92
48964;BME280;34776;48.180;16.420;2023-02-25T12:30:57;98300.63;;;11.12;39.88
48964;BME280;34776;48.180;16.420;2023-02-25T12:41:37;98286.94;;;10.94;39.06
48964;BME280;34776;48.180;16.420;2023-02-25T12:50:07;98293.91;;;10.37;40.92
48964;BME280;34776;48.180;16.420;2023-02-25T12:53:20;98284.22;;;10.12;39.70
48964;BME280;34776;48.180;16.420;2023-02-25T13:02:11;98292.19;;;9.51;39.62
48964;BME280;34776;48.180;16.420;2023-02-25T13:04:59;98286.34;;;9.59;39.95
48964;BME280;34776;48.180;16.420;2023-02-25T13:18:32;98272.22;;;11.57;36.55
48964;BME280;34776;48.180;16.420;2023-02-25T13:21:21;98276.69;;;11.46;37.68
48964;BME280;34776;48.180;16.420;2023-02-25T13:24:18;98289.38;;;11.42;36.34
48964;BME280;34776;48.180;16.420;2023-02-25T13:32:27;98304.16;;;10.77;36.61
48964;BME280;34776;48.180;16.420;2023-02-25T13:37:40;98299.00;;;10.98;37.08
48964;BME280;34776;48.180;16.420;2023-02-25T13:43:12;98296.34;;;10.75;36.60
48964;BME280;34776;48.180;16.420;2023-02-25T13:45:55;98301.84;;;10.61;37.27
48964;BME280;34776;48.180;16.420;2023-02-25T14:01:51;98312.47;;;9.52;38.68
48964;BME280;34776;48.180;16.420;2023-02-25T14:08:06;98311.47;;;9.66;38.35
48964;BME280;34776;48.180;16.420;2023-02-25T14:10:53;98331.06;;;9.76;38.15
48964;BME280;34776;48.180;16.420;2023-02-25T14:13:50;98323.50;;;9.95;38.02
48964;BME280;34776;48.180;16.420;2023-02-25T14:25:02;98346.28;;;9.98;38.41
48964;BME280;34776;48.180;16.420;2023-02-25T14:32:54;98367.56;;;9.85;38.54
48964;BME280;34776;48.180;16.420;2023-02-25T14:36:04;98358.03;;;9.83;38.46
48964;BME280;34776;48.180;16.420;2023-02-25T14:48:04;98352.84;;;10.05;38.69
48964;BME280;34776;48.180;16.420;2023-02-25T15:00:07;98361.38;;;9.85;38.87
48964;BME280;34776;48.180;16.420;2023-02-25T15:08:18;98376.09;;;9.52;39.58
48964;BME280;34776;48.180;16.420;2023-02-25T15:11:08;98366.88;;;9.58;39.53
48964;BME280;34776;48.180;16.420;2023-02-25T15:19:33;98378.13;;;9.10;40.43
48964;BME280;34776;48.180;16.420;2023-02-25T15:22:25;98388.16;;;8.92;40.27
48964;BME280;34776;48.180;16.420;2023-02-25T15:24:53;98374.94;;;8.65;40.98
48964;BME280;34776;48.180;16.420;2023-02-25T15:33:44;98371.75;;;8.47;41.79
48964;BME280;34776;48.180;16.420;2023-02-25T15:38:48;98381.09;;;8.52;42.01
48964;BME280;34776;48.180;16.420;2023-02-25T15:41:41;98386.41;;;8.65;42.05
48964;BME280;34776;48.180;16.420;2023-02-25T15:51:41;98401.31;;;9.06;41.84
48964;BME280;34776;48.180;16.420;2023-02-25T15:54:09;98408.31;;;9.07;41.88
48964;BME280;34776;48.180;16.420;2023-02-25T15:56:49;98411.66;;;8.84;42.11
48964;BME280;34776;48.180;16.420;2023-02-25T15:59:43;98422.16;;;8.58;43.11
48964;BME280;34776;48.180;16.420;2023-02-25T16:04:50;98454.56;;;8.49;43.64
48964;BME280;34776;48.180;16.420;2023-02-25T16:07:20;98451.81;;;8.36;43.98
48964;BME280;34776;48.180;16.420;2023-02-25T16:09:52;98455.31;;;8.37;44.51
48964;BME280;34776;48.180;16.420;2023-02-25T16:12:19;98458.19;;;8.19;46.32
48964;BME280;34776;48.180;16.420;2023-02-25T16:14:45;98450.66;;;7.99;47.54
48964;BME280;34776;48.180;16.420;2023-02-25T16:17:18;98456.53;;;7.75;48.44
48964;BME280;34776;48.180;16.420;2023-02-25T16:19:53;98450.84;;;7.67;49.58
48964;BME280;34776;48.180;16.420;2023-02-25T16:22:25;98466.72;;;7.67;49.55
48964;BME280;34776;48.180;16.420;2023-02-25T16:24:57;98461.13;;;7.57;50.21
48964;BME280;34776;48.180;16.420;2023-02-25T16:27:47;98466.78;;;7.51;51.88
48964;BME280;34776;48.180;16.420;2023-02-25T16:30:36;98469.03;;;7.43;50.72
48964;BME280;34776;48.180;16.420;2023-02-25T16:33:14;98464.69;;;7.27;51.52